createdAt,value
2023-05-15T00:01:25.793Z,17.90
2023-05-15T00:03:55.147Z,17.08
2023-05-15T00:06:23.524Z,17.45
2023-05-15T00:08:51.432Z,18.05
2023-05-15T00:11:19.406Z,17.52
2023-05-15T00:13:47.265Z,17.95
2023-05-15T00:16:16.606Z,17.52
2023-05-15T00:18:44.609Z,17.85
2023-05-15T00:21:12.769Z,17.63
2023-05-15T00:23:40.766Z,17.60
2023-05-15T00:26:08.621Z,17.48
2023-05-15T00:28:36.689Z,16.88
2023-05-15T00:31:04.598Z,16.73
2023-05-15T00:33:35.504Z,17.15
2023-05-15T00:36:04.428Z,17.13
2023-05-15T00:38:33.708Z,18.73
2023-05-15T00:41:02.692Z,17.92
2023-05-15T00:43:30.964Z,17.88
2023-05-15T00:45:59.671Z,19.50
2023-05-15T00:48:28.668Z,19.65
2023-05-15T00:50:59.360Z,19.48
2023-05-15T00:53:28.319Z,18.27
2023-05-15T00:55:58.415Z,18.73
2023-05-15T00:58:28.974Z,19.67
2023-05-15T01:00:57.297Z,18.65
2023-05-15T01:03:25.360Z,19.33
2023-05-15T01:05:53.479Z,19.23
2023-05-15T01:08:28.044Z,20.25
2023-05-15T01:10:56.976Z,20.33
2023-05-15T01:13:26.296Z,19.50
2023-05-15T01:15:56.094Z,19.38
2023-05-15T01:18:24.085Z,19.00
2023-05-15T01:21:08.404Z,19.85
2023-05-15T01:23:47.358Z,18.65
2023-05-15T01:26:47.229Z,20.67
2023-05-15T01:29:22.980Z,20.30
2023-05-15T01:31:53.192Z,19.58
2023-05-15T01:34:25.114Z,20.25
2023-05-15T01:36:55.252Z,19.73
2023-05-15T01:39:26.369Z,19.15
2023-05-15T01:41:56.930Z,20.85
2023-05-15T01:44:29.456Z,19.13
2023-05-15T01:47:00.103Z,20.98
2023-05-15T01:49:29.579Z,20.17
2023-05-15T01:52:03.091Z,19.55
2023-05-15T01:54:31.132Z,19.52
2023-05-15T01:56:59.144Z,20.98
2023-05-15T01:59:29.214Z,19.90
2023-05-15T02:01:58.303Z,19.50
2023-05-15T02:04:26.972Z,20.85
2023-05-15T02:06:55.340Z,19.63
2023-05-15T02:09:24.257Z,20.67
2023-05-15T02:11:52.568Z,20.17
2023-05-15T02:14:20.946Z,19.92
2023-05-15T02:16:50.342Z,21.40
2023-05-15T02:19:18.522Z,20.15
2023-05-15T02:21:46.623Z,22.00
2023-05-15T02:24:14.579Z,20.70
2023-05-15T02:26:49.497Z,21.25
2023-05-15T02:29:21.176Z,21.77
2023-05-15T02:31:55.586Z,22.05
2023-05-15T02:34:29.626Z,22.70
2023-05-15T02:36:59.889Z,21.92
2023-05-15T02:39:28.528Z,21.63
2023-05-15T02:41:57.088Z,24.52
2023-05-15T02:44:26.116Z,23.70
2023-05-15T02:46:55.902Z,24.33
2023-05-15T02:49:24.233Z,24.77
2023-05-15T02:51:52.246Z,24.60
2023-05-15T02:54:20.254Z,26.13
2023-05-15T02:56:48.399Z,26.67
2023-05-15T02:59:19.852Z,27.90
2023-05-15T03:01:48.173Z,27.70
2023-05-15T03:04:17.781Z,27.70
2023-05-15T03:06:45.726Z,29.25
2023-05-15T03:09:13.733Z,28.08
2023-05-15T03:11:41.738Z,31.48
2023-05-15T03:14:09.742Z,30.83
2023-05-15T03:16:39.071Z,32.03
2023-05-15T03:19:07.130Z,31.42
2023-05-15T03:21:36.403Z,31.40
2023-05-15T03:24:04.614Z,30.73
2023-05-15T03:26:32.883Z,31.20
2023-05-15T03:29:02.034Z,28.75
2023-05-15T03:31:30.520Z,29.90
2023-05-15T03:33:58.398Z,30.77
2023-05-15T03:36:26.423Z,30.15
2023-05-15T03:38:55.742Z,29.48
2023-05-15T03:41:23.716Z,28.83
2023-05-15T03:43:51.663Z,28.10
2023-05-15T03:46:20.352Z,27.98
2023-05-15T03:48:48.231Z,27.30
2023-05-15T03:51:16.446Z,26.90
2023-05-15T03:53:44.294Z,27.88
2023-05-15T03:56:13.651Z,28.45
2023-05-15T03:58:42.197Z,27.50
2023-05-15T04:01:10.067Z,29.02
2023-05-15T04:03:38.273Z,27.75
2023-05-15T04:06:07.008Z,27.77
2023-05-15T04:08:39.224Z,27.90
2023-05-15T04:11:08.323Z,28.77
2023-05-15T04:13:37.659Z,27.77
2023-05-15T04:16:05.966Z,28.92
2023-05-15T04:18:33.927Z,28.55
2023-05-15T04:21:01.788Z,29.25
2023-05-15T04:23:29.822Z,27.25
2023-05-15T04:25:57.872Z,27.90
2023-05-15T04:28:25.742Z,26.98
2023-05-15T04:30:55.064Z,26.98
2023-05-15T04:33:23.037Z,27.23
2023-05-15T04:35:50.948Z,27.77
2023-05-15T04:38:19.216Z,28.50
2023-05-15T04:40:47.331Z,27.88
2023-05-15T04:43:15.679Z,26.90
2023-05-15T04:45:43.693Z,26.58
2023-05-15T04:48:13.175Z,26.75
2023-05-15T04:50:41.217Z,26.55
2023-05-15T04:53:09.070Z,25.95
2023-05-15T04:55:36.983Z,24.85
2023-05-15T04:58:04.854Z,24.73
2023-05-15T05:00:32.784Z,26.05
2023-05-15T05:03:00.850Z,25.65
2023-05-15T05:05:30.574Z,26.08
2023-05-15T05:07:58.588Z,26.75
2023-05-15T05:10:26.616Z,26.35
2023-05-15T05:12:54.504Z,26.15
2023-05-15T05:15:22.696Z,27.13
2023-05-15T05:17:51.464Z,26.00
2023-05-15T05:20:20.833Z,26.77
2023-05-15T05:22:50.607Z,27.25
2023-05-15T05:25:18.723Z,26.25
2023-05-15T05:27:46.759Z,28.48
2023-05-15T05:30:15.294Z,27.17
2023-05-15T05:32:43.232Z,27.20
2023-05-15T05:35:11.021Z,25.17
2023-05-15T05:37:41.032Z,25.08
2023-05-15T05:40:12.195Z,25.70
2023-05-15T05:42:40.065Z,25.23
2023-05-15T05:45:09.082Z,25.17
2023-05-15T05:47:37.375Z,24.00
2023-05-15T05:50:06.140Z,23.85
2023-05-15T05:52:34.120Z,23.23
2023-05-15T05:55:02.389Z,22.23
2023-05-15T05:57:31.817Z,22.23
2023-05-15T06:00:00.105Z,21.90
2023-05-15T06:02:28.308Z,22.63
2023-05-15T06:04:56.547Z,21.73
2023-05-15T06:07:24.789Z,22.42
2023-05-15T06:09:52.680Z,22.27
2023-05-15T06:12:22.838Z,22.08
2023-05-15T06:14:52.578Z,21.08
2023-05-15T06:17:20.814Z,20.85
2023-05-15T06:19:48.961Z,19.15
2023-05-15T06:22:16.826Z,18.80
2023-05-15T06:24:44.860Z,18.40
2023-05-15T06:27:13.170Z,17.63
2023-05-15T06:29:41.062Z,16.70
2023-05-15T06:32:10.475Z,15.38
2023-05-15T06:34:38.467Z,16.55
2023-05-15T06:37:07.742Z,16.25
2023-05-15T06:39:35.550Z,15.65
2023-05-15T06:42:03.564Z,15.45
2023-05-15T06:44:31.906Z,14.25
2023-05-15T06:47:00.249Z,14.93
2023-05-15T06:49:29.862Z,15.60
2023-05-15T06:51:57.801Z,16.40
2023-05-15T06:54:26.599Z,16.58
2023-05-15T06:56:54.406Z,16.55
2023-05-15T06:59:22.327Z,17.20
2023-05-15T07:01:50.310Z,16.30
2023-05-15T07:04:18.687Z,14.55
2023-05-15T07:06:48.031Z,16.60
2023-05-15T07:09:16.235Z,14.73
2023-05-15T07:11:44.195Z,14.32
2023-05-15T07:14:12.109Z,15.00
2023-05-15T07:16:40.241Z,13.98
2023-05-15T07:19:09.607Z,15.00
2023-05-15T07:21:37.963Z,14.73
2023-05-15T07:24:07.756Z,14.07
2023-05-15T07:26:43.445Z,14.60
2023-05-15T07:29:18.370Z,14.73
2023-05-15T07:31:46.438Z,15.13
2023-05-15T07:34:14.477Z,15.27
2023-05-15T07:36:42.501Z,15.30
2023-05-15T07:39:11.999Z,15.43
2023-05-15T07:41:40.042Z,15.38
2023-05-15T07:44:08.199Z,17.92
2023-05-15T07:46:36.412Z,16.92
2023-05-15T07:49:04.333Z,17.27
2023-05-15T07:51:32.488Z,17.60
2023-05-15T07:54:00.743Z,18.42
2023-05-15T07:56:29.873Z,18.23
2023-05-15T07:58:58.101Z,18.50
2023-05-15T08:01:26.308Z,18.20
2023-05-15T08:03:54.282Z,19.00
2023-05-15T08:06:22.228Z,18.77
2023-05-15T08:08:50.261Z,19.98
2023-05-15T08:11:19.545Z,19.63
2023-05-15T08:13:48.968Z,20.60
2023-05-15T08:16:17.104Z,20.05
2023-05-15T08:18:45.156Z,19.70
2023-05-15T08:21:13.310Z,19.77
2023-05-15T08:23:41.318Z,21.08
2023-05-15T08:26:09.303Z,20.55
2023-05-15T08:28:37.486Z,20.90
2023-05-15T08:31:06.866Z,20.90
2023-05-15T08:33:34.977Z,22.40
2023-05-15T08:36:03.236Z,21.85
2023-05-15T08:38:31.620Z,21.60
2023-05-15T08:41:03.786Z,21.55
2023-05-15T08:43:35.467Z,21.65
2023-05-15T08:46:03.551Z,22.77
2023-05-15T08:48:38.060Z,23.85
2023-05-15T08:51:07.681Z,23.15
2023-05-15T08:53:35.681Z,23.70
2023-05-15T08:56:03.716Z,22.48
2023-05-15T08:58:32.542Z,24.17
2023-05-15T09:01:01.098Z,24.25
2023-05-15T09:03:29.491Z,23.25
2023-05-15T09:05:59.600Z,21.80
2023-05-15T09:08:28.803Z,20.42
2023-05-15T09:10:57.746Z,19.40
2023-05-15T09:13:26.365Z,16.90
2023-05-15T09:15:54.446Z,15.13
2023-05-15T09:18:22.967Z,15.88
2023-05-15T09:20:51.423Z,15.25
2023-05-15T09:23:27.992Z,16.58
2023-05-15T09:25:57.013Z,16.73
2023-05-15T09:28:29.949Z,17.15
2023-05-15T09:31:00.289Z,17.88
2023-05-15T09:33:32.912Z,18.02
2023-05-15T09:36:02.011Z,17.60
2023-05-15T09:38:33.900Z,17.75
2023-05-15T09:41:03.759Z,18.42
2023-05-15T09:43:34.837Z,19.98
2023-05-15T09:46:02.888Z,20.25
2023-05-15T09:48:32.210Z,20.20
2023-05-15T09:51:00.217Z,19.55
2023-05-15T09:53:31.894Z,19.88
2023-05-15T09:55:59.926Z,18.58
2023-05-15T09:58:27.979Z,17.23
2023-05-15T10:00:56.038Z,16.65
2023-05-15T10:03:24.174Z,15.05
2023-05-15T10:05:52.146Z,15.45
2023-05-15T10:08:28.238Z,16.50
2023-05-15T10:11:00.932Z,16.02
2023-05-15T10:13:29.280Z,18.15
2023-05-15T10:15:57.611Z,17.30
2023-05-15T10:18:26.276Z,16.17
2023-05-15T10:20:58.174Z,17.42
2023-05-15T10:23:26.892Z,15.15
2023-05-15T10:26:03.243Z,16.02
2023-05-15T10:28:31.466Z,14.98
2023-05-15T10:31:02.286Z,15.32
2023-05-15T10:33:30.995Z,15.70
2023-05-15T10:36:00.226Z,14.95
2023-05-15T10:38:29.545Z,15.43
2023-05-15T10:41:13.036Z,15.38
2023-05-15T10:43:45.996Z,16.60
2023-05-15T10:46:14.710Z,16.27
2023-05-15T10:48:42.962Z,16.38
2023-05-15T10:51:16.691Z,17.70
2023-05-15T10:53:45.153Z,18.40
2023-05-15T10:56:16.663Z,16.50
2023-05-15T10:58:48.826Z,17.80
2023-05-15T11:01:28.160Z,19.48
2023-05-15T11:04:07.219Z,19.00
2023-05-15T11:06:35.290Z,20.45
2023-05-15T11:09:36.840Z,21.52
2023-05-15T11:12:07.952Z,22.60
2023-05-15T11:14:41.064Z,21.95
2023-05-15T11:17:10.309Z,24.92
2023-05-15T11:19:40.286Z,24.52
2023-05-15T11:22:19.449Z,25.98
2023-05-15T11:24:52.576Z,26.92
2023-05-15T11:27:23.910Z,29.65
2023-05-15T11:30:14.349Z,31.83
2023-05-15T11:33:00.760Z,32.78
2023-05-15T11:35:30.732Z,33.72
2023-05-15T11:37:59.780Z,35.47
2023-05-15T11:40:29.683Z,36.22
2023-05-15T11:43:07.517Z,37.28
2023-05-15T11:45:37.581Z,37.13
2023-05-15T11:48:09.203Z,35.78
2023-05-15T11:50:37.208Z,37.17
2023-05-15T11:53:06.440Z,36.63
2023-05-15T11:55:35.450Z,35.47
2023-05-15T11:58:05.279Z,33.05
2023-05-15T12:00:33.298Z,35.50
2023-05-15T12:03:01.261Z,34.75
2023-05-15T12:05:29.256Z,34.15
2023-05-15T12:07:57.090Z,33.13
2023-05-15T12:10:25.503Z,31.48
2023-05-15T12:12:53.664Z,30.60
2023-05-15T12:15:23.060Z,28.65
2023-05-15T12:17:51.813Z,28.10
2023-05-15T12:20:20.460Z,27.35
2023-05-15T12:22:48.306Z,27.02
2023-05-15T12:25:17.737Z,25.80
2023-05-15T12:27:45.963Z,25.77
2023-05-15T12:30:15.516Z,24.25
2023-05-15T12:32:45.069Z,24.38
2023-05-15T12:35:12.987Z,24.38
2023-05-15T12:37:41.274Z,24.95
2023-05-15T12:40:10.721Z,23.55
2023-05-15T12:42:43.364Z,24.48
2023-05-15T12:45:15.333Z,23.83
2023-05-15T12:47:45.400Z,24.02
2023-05-15T12:50:17.227Z,24.25
2023-05-15T12:52:51.551Z,24.85
2023-05-15T12:55:19.955Z,24.83
2023-05-15T12:57:47.789Z,25.25
2023-05-15T13:00:16.609Z,24.10
2023-05-15T13:02:46.413Z,23.60
2023-05-15T13:05:14.883Z,23.63
2023-05-15T13:07:43.281Z,23.25
2023-05-15T13:10:12.783Z,21.00
2023-05-15T13:12:43.699Z,21.42
2023-05-15T13:15:24.198Z,19.75
2023-05-15T13:17:57.670Z,21.00
2023-05-15T13:20:26.164Z,20.08
2023-05-15T13:22:54.225Z,20.08
2023-05-15T13:25:22.424Z,17.98
2023-05-15T13:27:50.721Z,17.20
2023-05-15T13:30:19.377Z,16.73
2023-05-15T13:32:48.037Z,16.88
2023-05-15T13:35:17.761Z,16.55
2023-05-15T13:37:45.943Z,16.95
2023-05-15T13:40:14.485Z,16.60
2023-05-15T13:42:44.286Z,18.00
2023-05-15T13:45:13.759Z,16.65
2023-05-15T13:47:41.972Z,17.17
2023-05-15T13:50:11.230Z,16.50
2023-05-15T13:52:41.470Z,15.90
2023-05-15T13:55:10.922Z,15.95
2023-05-15T13:57:39.198Z,15.77
2023-05-15T14:00:10.823Z,14.82
2023-05-15T14:02:38.827Z,15.85
2023-05-15T14:05:07.335Z,16.08
2023-05-15T14:07:35.545Z,14.48
2023-05-15T14:10:07.911Z,14.07
2023-05-15T14:12:36.314Z,15.98
2023-05-15T14:15:04.876Z,17.23
2023-05-15T14:17:32.685Z,17.95
2023-05-15T14:20:01.169Z,17.77
2023-05-15T14:22:29.220Z,14.88
2023-05-15T14:24:57.311Z,14.68
2023-05-15T14:27:26.760Z,14.90
2023-05-15T14:29:56.710Z,15.55
2023-05-15T14:32:25.069Z,15.13
2023-05-15T14:34:53.213Z,16.40
2023-05-15T14:37:21.105Z,15.73
2023-05-15T14:39:49.228Z,15.98
2023-05-15T14:42:17.763Z,20.33
2023-05-15T14:44:47.067Z,20.38
2023-05-15T14:47:14.995Z,32.42
2023-05-15T14:49:43.220Z,20.05
2023-05-15T14:52:12.212Z,16.13
2023-05-15T14:54:40.365Z,17.73
2023-05-15T14:57:08.692Z,16.13
2023-05-15T14:59:36.730Z,15.98
2023-05-15T15:02:07.190Z,15.20
2023-05-15T15:04:35.361Z,13.70
2023-05-15T15:07:05.200Z,12.77
2023-05-15T15:09:33.360Z,10.68
2023-05-15T15:12:01.209Z,10.60
2023-05-15T15:14:29.247Z,10.13
2023-05-15T15:16:57.138Z,10.25
2023-05-15T15:19:26.481Z,9.88
2023-05-15T15:21:54.656Z,9.90
2023-05-15T15:24:22.619Z,9.02
2023-05-15T15:26:50.418Z,8.48
2023-05-15T15:29:18.430Z,9.25
2023-05-15T15:31:46.218Z,10.00
2023-05-15T15:34:14.164Z,9.18
2023-05-15T15:36:44.006Z,9.43
2023-05-15T15:39:13.177Z,9.90
2023-05-15T15:41:41.348Z,9.95
2023-05-15T15:44:09.337Z,10.40
2023-05-15T15:46:37.372Z,10.13
2023-05-15T15:49:06.791Z,9.88
2023-05-15T15:51:35.231Z,10.40
2023-05-15T15:54:04.444Z,10.73
2023-05-15T15:56:32.553Z,10.70
2023-05-15T15:59:00.563Z,11.52
2023-05-15T16:01:28.920Z,11.23
2023-05-15T16:03:56.801Z,10.43
2023-05-15T16:06:24.865Z,9.68
2023-05-15T16:08:52.680Z,9.82
2023-05-15T16:11:22.347Z,10.40
2023-05-15T16:13:50.403Z,10.95
2023-05-15T16:16:18.254Z,10.45
2023-05-15T16:18:46.561Z,10.48
2023-05-15T16:21:14.740Z,8.15
2023-05-15T16:23:43.198Z,7.13
2023-05-15T16:26:11.454Z,6.82
2023-05-15T16:28:40.866Z,7.10
2023-05-15T16:31:08.752Z,6.55
2023-05-15T16:33:37.016Z,6.93
2023-05-15T16:36:06.027Z,7.50
2023-05-15T16:38:34.206Z,7.28
2023-05-15T16:41:02.535Z,7.50
2023-05-15T16:43:30.734Z,7.38
2023-05-15T16:46:00.212Z,7.47
2023-05-15T16:48:28.886Z,7.13
2023-05-15T16:50:56.949Z,6.80
2023-05-15T16:53:25.173Z,7.88
2023-05-15T16:55:56.174Z,6.75
2023-05-15T16:58:24.132Z,7.38
2023-05-15T17:00:52.086Z,7.32
2023-05-15T17:03:21.634Z,7.80
2023-05-15T17:05:50.037Z,6.55
2023-05-15T17:08:18.145Z,6.80
2023-05-15T17:10:46.041Z,6.38
2023-05-15T17:13:14.634Z,7.35
2023-05-15T17:15:42.620Z,7.45
2023-05-15T17:18:10.781Z,5.63
2023-05-15T17:20:40.144Z,5.43
2023-05-15T17:23:08.175Z,5.80
2023-05-15T17:25:36.251Z,5.72
2023-05-15T17:28:04.383Z,5.45
2023-05-15T17:30:32.538Z,5.40
2023-05-15T17:33:00.802Z,5.43
2023-05-15T17:35:30.723Z,4.45
2023-05-15T17:38:02.012Z,3.38
2023-05-15T17:40:30.500Z,4.15
2023-05-15T17:42:58.411Z,3.53
2023-05-15T17:45:27.193Z,3.65
2023-05-15T17:48:02.418Z,3.40
2023-05-15T17:50:30.860Z,3.70
2023-05-15T17:52:59.050Z,2.78
2023-05-15T17:55:28.563Z,3.13
2023-05-15T17:57:56.637Z,3.00
2023-05-15T18:00:25.220Z,2.92
2023-05-15T18:02:53.876Z,2.60
2023-05-15T18:05:22.011Z,2.90
2023-05-15T18:07:50.002Z,2.95
2023-05-15T18:10:17.962Z,2.97
2023-05-15T18:12:47.670Z,3.25
2023-05-15T18:15:16.090Z,3.00
2023-05-15T18:17:44.097Z,3.10
2023-05-15T18:20:13.150Z,3.10
2023-05-15T18:22:41.190Z,3.55
2023-05-15T18:25:09.295Z,3.85
2023-05-15T18:27:37.532Z,3.42
2023-05-15T18:30:08.169Z,3.92
2023-05-15T18:32:36.243Z,3.50
2023-05-15T18:35:05.119Z,3.72
2023-05-15T18:37:33.174Z,3.88
2023-05-15T18:40:01.083Z,3.80
2023-05-15T18:42:29.617Z,3.20
2023-05-15T18:44:57.461Z,3.50
2023-05-15T18:47:27.083Z,3.53
2023-05-15T18:49:54.973Z,3.42
2023-05-15T18:52:23.215Z,4.22
2023-05-15T18:54:52.639Z,2.88
2023-05-15T18:57:20.711Z,3.60
2023-05-15T18:59:48.877Z,3.58
2023-05-15T19:02:16.930Z,3.65
2023-05-15T19:04:46.245Z,3.70
2023-05-15T19:07:14.218Z,3.03
2023-05-15T19:09:42.349Z,3.22
2023-05-15T19:12:10.432Z,3.00
2023-05-15T19:14:38.522Z,2.88
2023-05-15T19:17:07.209Z,2.60
2023-05-15T19:19:35.174Z,3.20
2023-05-15T19:22:12.807Z,2.85
2023-05-15T19:24:46.919Z,2.22
2023-05-15T19:27:21.417Z,2.58
2023-05-15T19:29:52.919Z,2.60
2023-05-15T19:32:21.345Z,2.38
2023-05-15T19:34:49.520Z,2.05
2023-05-15T19:37:18.710Z,2.30
2023-05-15T19:39:46.620Z,2.17
2023-05-15T19:42:14.626Z,2.30
2023-05-15T19:44:42.514Z,2.60
2023-05-15T19:47:10.558Z,2.45
2023-05-15T19:49:38.632Z,2.00
2023-05-15T19:52:06.720Z,1.90
2023-05-15T19:54:36.096Z,1.92
2023-05-15T19:57:04.161Z,2.05
2023-05-15T19:59:32.359Z,1.50
2023-05-15T20:02:01.861Z,1.92
2023-05-15T20:04:32.560Z,1.55
2023-05-15T20:07:00.831Z,1.67
2023-05-15T20:09:29.546Z,1.30
2023-05-15T20:11:58.787Z,1.73
2023-05-15T20:14:28.008Z,1.52
2023-05-15T20:16:56.390Z,1.23
2023-05-15T20:19:25.093Z,1.17
2023-05-15T20:21:53.348Z,0.90
2023-05-15T20:24:25.808Z,1.17
2023-05-15T20:26:53.908Z,1.02
2023-05-15T20:29:23.199Z,1.40
2023-05-15T20:31:51.191Z,1.63
2023-05-15T20:34:19.316Z,1.10
2023-05-15T20:36:47.370Z,1.20
2023-05-15T20:39:15.243Z,1.05
2023-05-15T20:41:43.227Z,1.20
2023-05-15T20:44:11.083Z,1.50
2023-05-15T20:46:41.478Z,1.30
2023-05-15T20:49:09.555Z,1.40
2023-05-15T20:51:37.638Z,1.30
2023-05-15T20:54:05.863Z,1.60
2023-05-15T20:56:33.780Z,1.67
2023-05-15T20:59:01.862Z,1.50
2023-05-15T21:01:29.898Z,1.38
2023-05-15T21:03:59.419Z,1.60
2023-05-15T21:06:27.509Z,2.10
2023-05-15T21:08:55.580Z,1.73
2023-05-15T21:11:23.661Z,1.85
2023-05-15T21:13:52.027Z,1.88
2023-05-15T21:16:20.240Z,2.03
2023-05-15T21:18:49.119Z,1.90
2023-05-15T21:21:21.294Z,2.17
2023-05-15T21:23:49.420Z,2.72
2023-05-15T21:26:17.256Z,2.00
2023-05-15T21:28:45.298Z,2.20
2023-05-15T21:31:13.141Z,2.05
2023-05-15T21:33:41.342Z,2.40
2023-05-15T21:36:09.750Z,2.47
2023-05-15T21:38:39.089Z,2.85
2023-05-15T21:41:06.959Z,2.55
2023-05-15T21:43:34.929Z,2.25
2023-05-15T21:46:03.446Z,2.63
2023-05-15T21:48:31.329Z,2.50
2023-05-15T21:50:59.444Z,2.88
2023-05-15T21:53:27.503Z,2.58
2023-05-15T21:56:01.020Z,3.65
2023-05-15T21:58:29.648Z,2.85
2023-05-15T22:00:57.574Z,2.75
2023-05-15T22:03:26.048Z,2.70
2023-05-15T22:05:54.053Z,2.83
2023-05-15T22:08:22.281Z,2.55
2023-05-15T22:10:50.588Z,2.97
2023-05-15T22:13:29.481Z,2.90
2023-05-15T22:15:57.364Z,2.88
2023-05-15T22:18:26.210Z,2.63
2023-05-15T22:20:54.648Z,3.55
2023-05-15T22:23:22.717Z,3.28
2023-05-15T22:25:50.553Z,2.85
2023-05-15T22:28:18.466Z,2.92
2023-05-15T22:30:48.090Z,3.33
2023-05-15T22:33:16.785Z,3.20
2023-05-15T22:35:45.061Z,3.28
2023-05-15T22:38:13.162Z,2.97
2023-05-15T22:40:41.239Z,2.70
2023-05-15T22:43:09.089Z,2.90
2023-05-15T22:45:37.134Z,3.45
2023-05-15T22:48:07.061Z,2.97
2023-05-15T22:50:35.169Z,2.95
2023-05-15T22:53:03.028Z,2.97
2023-05-15T22:55:30.784Z,2.70
2023-05-15T22:57:58.893Z,3.03
2023-05-15T23:00:26.891Z,3.00
2023-05-15T23:02:56.117Z,3.30
2023-05-15T23:05:25.934Z,3.17
2023-05-15T23:08:48.853Z,3.55
2023-05-15T23:11:20.516Z,3.15
2023-05-15T23:13:48.924Z,3.13
2023-05-15T23:16:17.002Z,3.70
2023-05-15T23:18:45.009Z,3.00
2023-05-15T23:21:14.381Z,3.60
2023-05-15T23:23:42.127Z,3.08
2023-05-15T23:26:10.005Z,3.50
2023-05-15T23:28:38.070Z,3.00
2023-05-15T23:31:06.379Z,3.33
2023-05-15T23:33:34.397Z,2.95
2023-05-15T23:36:02.495Z,3.10
2023-05-15T23:38:31.898Z,3.78
2023-05-15T23:40:59.725Z,3.45
2023-05-15T23:43:29.777Z,3.63
2023-05-15T23:45:57.856Z,3.40
2023-05-15T23:48:25.866Z,2.95
2023-05-15T23:50:54.729Z,2.97
2023-05-15T23:53:22.950Z,3.40
2023-05-15T23:55:52.484Z,3.15
2023-05-15T23:58:20.363Z,3.65
